sensor_id;sensor_type;location;lat;lon;timestamp;P1;durP1;ratioP1;P2;durP2;ratioP2
32824;SDS011;51060;42.640;24.356;2022-09-14T00:00:23;8.07;;;5.23;;
32824;SDS011;51060;42.640;24.356;2022-09-14T00:02:49;5.53;;;4.90;;
32824;SDS011;51060;42.640;24.356;2022-09-14T00:05:15;5.63;;;5.13;;
32824;SDS011;51060;42.640;24.356;2022-09-14T00:07:41;6.83;;;5.50;;
32824;SDS011;51060;42.640;24.356;2022-09-14T00:10:06;12.40;;;5.43;;
32824;SDS011;51060;42.640;24.356;2022-09-14T00:12:32;7.30;;;5.40;;
32824;SDS011;51060;42.640;24.356;2022-09-14T00:14:58;6.50;;;5.20;;
32824;SDS011;51060;42.640;24.356;2022-09-14T00:17:24;5.70;;;4.40;;
32824;SDS011;51060;42.640;24.356;2022-09-14T00:19:49;7.50;;;6.00;;
32824;SDS011;51060;42.640;24.356;2022-09-14T00:22:17;6.43;;;5.63;;
32824;SDS011;51060;42.640;24.356;2022-09-14T00:24:43;6.97;;;5.63;;
32824;SDS011;51060;42.640;24.356;2022-09-14T00:27:09;7.40;;;5.30;;
32824;SDS011;51060;42.640;24.356;2022-09-14T00:29:35;5.10;;;4.60;;
32824;SDS011;51060;42.640;24.356;2022-09-14T00:32:00;5.60;;;4.60;;
32824;SDS011;51060;42.640;24.356;2022-09-14T00:34:27;5.77;;;4.90;;
32824;SDS011;51060;42.640;24.356;2022-09-14T00:36:52;6.70;;;5.13;;
32824;SDS011;51060;42.640;24.356;2022-09-14T00:39:19;5.27;;;4.77;;
32824;SDS011;51060;42.640;24.356;2022-09-14T00:41:48;6.13;;;5.23;;
32824;SDS011;51060;42.640;24.356;2022-09-14T00:46:41;6.17;;;5.03;;
32824;SDS011;51060;42.640;24.356;2022-09-14T00:49:13;6.23;;;5.13;;
32824;SDS011;51060;42.640;24.356;2022-09-14T00:51:44;5.60;;;5.10;;
32824;SDS011;51060;42.640;24.356;2022-09-14T00:54:13;7.00;;;4.87;;
32824;SDS011;51060;42.640;24.356;2022-09-14T00:56:39;5.23;;;4.33;;
32824;SDS011;51060;42.640;24.356;2022-09-14T00:59:07;5.47;;;4.90;;
32824;SDS011;51060;42.640;24.356;2022-09-14T01:01:35;5.33;;;4.83;;
32824;SDS011;51060;42.640;24.356;2022-09-14T01:04:01;6.03;;;5.47;;
32824;SDS011;51060;42.640;24.356;2022-09-14T01:17:42;6.67;;;5.43;;
32824;SDS011;51060;42.640;24.356;2022-09-14T01:20:15;5.30;;;4.73;;
32824;SDS011;51060;42.640;24.356;2022-09-14T01:26:05;6.03;;;4.97;;
32824;SDS011;51060;42.640;24.356;2022-09-14T01:40:17;5.13;;;4.67;;
32824;SDS011;51060;42.640;24.356;2022-09-14T01:42:55;5.40;;;4.90;;
32824;SDS011;51060;42.640;24.356;2022-09-14T01:45:35;5.23;;;4.73;;
32824;SDS011;51060;42.640;24.356;2022-09-14T01:48:06;6.03;;;5.37;;
32824;SDS011;51060;42.640;24.356;2022-09-14T01:50:43;7.77;;;5.00;;
32824;SDS011;51060;42.640;24.356;2022-09-14T01:56:06;5.67;;;5.17;;
32824;SDS011;51060;42.640;24.356;2022-09-14T01:58:53;8.27;;;5.20;;
32824;SDS011;51060;42.640;24.356;2022-09-14T02:01:24;8.27;;;5.80;;
32824;SDS011;51060;42.640;24.356;2022-09-14T02:03:55;7.03;;;6.30;;
32824;SDS011;51060;42.640;24.356;2022-09-14T02:06:32;8.30;;;7.10;;
32824;SDS011;51060;42.640;24.356;2022-09-14T02:09:01;9.10;;;6.77;;
32824;SDS011;51060;42.640;24.356;2022-09-14T02:11:27;8.43;;;6.50;;
32824;SDS011;51060;42.640;24.356;2022-09-14T02:13:53;7.37;;;6.43;;
32824;SDS011;51060;42.640;24.356;2022-09-14T02:16:19;7.93;;;5.27;;
32824;SDS011;51060;42.640;24.356;2022-09-14T02:18:46;5.70;;;5.03;;
32824;SDS011;51060;42.640;24.356;2022-09-14T02:21:13;5.93;;;5.20;;
32824;SDS011;51060;42.640;24.356;2022-09-14T02:23:41;6.07;;;5.53;;
32824;SDS011;51060;42.640;24.356;2022-09-14T02:26:07;6.77;;;5.60;;
32824;SDS011;51060;42.640;24.356;2022-09-14T02:28:33;5.43;;;4.80;;
32824;SDS011;51060;42.640;24.356;2022-09-14T02:31:16;5.03;;;4.53;;
32824;SDS011;51060;42.640;24.356;2022-09-14T02:39:20;6.33;;;5.17;;
32824;SDS011;51060;42.640;24.356;2022-09-14T02:44:51;5.73;;;5.23;;
32824;SDS011;51060;42.640;24.356;2022-09-14T02:47:28;6.97;;;4.80;;
32824;SDS011;51060;42.640;24.356;2022-09-14T02:55:44;5.73;;;5.23;;
32824;SDS011;51060;42.640;24.356;2022-09-14T02:58:12;5.73;;;5.23;;
32824;SDS011;51060;42.640;24.356;2022-09-14T03:00:48;6.43;;;5.83;;
32824;SDS011;51060;42.640;24.356;2022-09-14T03:03:15;6.20;;;5.20;;
32824;SDS011;51060;42.640;24.356;2022-09-14T03:05:42;7.00;;;6.40;;
32824;SDS011;51060;42.640;24.356;2022-09-14T03:08:08;5.63;;;5.17;;
32824;SDS011;51060;42.640;24.356;2022-09-14T03:10:35;6.60;;;5.43;;
32824;SDS011;51060;42.640;24.356;2022-09-14T03:13:01;6.17;;;5.40;;
32824;SDS011;51060;42.640;24.356;2022-09-14T03:15:27;5.83;;;5.33;;
32824;SDS011;51060;42.640;24.356;2022-09-14T03:17:53;5.87;;;5.27;;
32824;SDS011;51060;42.640;24.356;2022-09-14T03:20:20;6.83;;;5.30;;
32824;SDS011;51060;42.640;24.356;2022-09-14T03:22:49;6.47;;;5.87;;
32824;SDS011;51060;42.640;24.356;2022-09-14T03:25:15;9.43;;;6.40;;
32824;SDS011;51060;42.640;24.356;2022-09-14T03:27:47;7.97;;;6.20;;
32824;SDS011;51060;42.640;24.356;2022-09-14T03:30:25;6.40;;;5.80;;
32824;SDS011;51060;42.640;24.356;2022-09-14T03:32:51;7.30;;;5.60;;
32824;SDS011;51060;42.640;24.356;2022-09-14T03:35:17;6.90;;;5.43;;
32824;SDS011;51060;42.640;24.356;2022-09-14T03:37:43;6.10;;;5.50;;
32824;SDS011;51060;42.640;24.356;2022-09-14T03:40:10;7.10;;;5.97;;
32824;SDS011;51060;42.640;24.356;2022-09-14T03:42:41;7.20;;;6.50;;
32824;SDS011;51060;42.640;24.356;2022-09-14T03:45:11;10.63;;;6.53;;
32824;SDS011;51060;42.640;24.356;2022-09-14T03:47:38;6.83;;;6.23;;
32824;SDS011;51060;42.640;24.356;2022-09-14T03:50:04;7.63;;;5.90;;
32824;SDS011;51060;42.640;24.356;2022-09-14T03:52:30;6.67;;;5.73;;
32824;SDS011;51060;42.640;24.356;2022-09-14T03:54:57;6.63;;;6.03;;
32824;SDS011;51060;42.640;24.356;2022-09-14T03:57:23;6.87;;;6.27;;
32824;SDS011;51060;42.640;24.356;2022-09-14T03:59:48;6.33;;;5.73;;
32824;SDS011;51060;42.640;24.356;2022-09-14T04:02:14;13.97;;;6.57;;
32824;SDS011;51060;42.640;24.356;2022-09-14T04:04:40;6.43;;;5.83;;
32824;SDS011;51060;42.640;24.356;2022-09-14T04:07:05;7.00;;;6.30;;
32824;SDS011;51060;42.640;24.356;2022-09-14T04:09:31;6.87;;;6.27;;
32824;SDS011;51060;42.640;24.356;2022-09-14T04:11:58;6.40;;;5.80;;
32824;SDS011;51060;42.640;24.356;2022-09-14T04:14:24;7.07;;;6.37;;
32824;SDS011;51060;42.640;24.356;2022-09-14T04:16:49;6.63;;;6.03;;
32824;SDS011;51060;42.640;24.356;2022-09-14T04:19:15;14.40;;;9.00;;
32824;SDS011;51060;42.640;24.356;2022-09-14T04:21:41;20.47;;;15.30;;
32824;SDS011;51060;42.640;24.356;2022-09-14T04:24:08;26.33;;;19.60;;
32824;SDS011;51060;42.640;24.356;2022-09-14T04:26:36;19.80;;;15.07;;
32824;SDS011;51060;42.640;24.356;2022-09-14T04:29:02;14.00;;;11.20;;
32824;SDS011;51060;42.640;24.356;2022-09-14T04:31:28;18.33;;;13.80;;
32824;SDS011;51060;42.640;24.356;2022-09-14T04:33:54;18.07;;;14.33;;
32824;SDS011;51060;42.640;24.356;2022-09-14T04:36:21;17.10;;;14.70;;
32824;SDS011;51060;42.640;24.356;2022-09-14T04:38:51;18.03;;;14.83;;
32824;SDS011;51060;42.640;24.356;2022-09-14T04:41:18;20.43;;;15.93;;
32824;SDS011;51060;42.640;24.356;2022-09-14T04:43:45;21.70;;;17.67;;
32824;SDS011;51060;42.640;24.356;2022-09-14T04:46:12;24.80;;;19.20;;
32824;SDS011;51060;42.640;24.356;2022-09-14T04:48:40;26.93;;;18.30;;
32824;SDS011;51060;42.640;24.356;2022-09-14T04:51:07;23.63;;;18.63;;
32824;SDS011;51060;42.640;24.356;2022-09-14T04:53:35;23.63;;;20.13;;
32824;SDS011;51060;42.640;24.356;2022-09-14T04:56:03;22.07;;;18.50;;
32824;SDS011;51060;42.640;24.356;2022-09-14T04:58:30;21.17;;;17.50;;
32824;SDS011;51060;42.640;24.356;2022-09-14T05:01:03;23.50;;;17.73;;
32824;SDS011;51060;42.640;24.356;2022-09-14T05:03:30;20.37;;;17.53;;
32824;SDS011;51060;42.640;24.356;2022-09-14T05:06:07;19.70;;;16.77;;
32824;SDS011;51060;42.640;24.356;2022-09-14T05:08:34;21.93;;;16.33;;
32824;SDS011;51060;42.640;24.356;2022-09-14T05:11:02;24.40;;;18.90;;
32824;SDS011;51060;42.640;24.356;2022-09-14T05:13:28;23.50;;;17.73;;
32824;SDS011;51060;42.640;24.356;2022-09-14T05:15:54;20.87;;;16.53;;
32824;SDS011;51060;42.640;24.356;2022-09-14T05:18:19;22.57;;;17.30;;
32824;SDS011;51060;42.640;24.356;2022-09-14T05:20:45;21.37;;;16.13;;
32824;SDS011;51060;42.640;24.356;2022-09-14T05:23:11;16.67;;;14.87;;
32824;SDS011;51060;42.640;24.356;2022-09-14T05:25:37;18.97;;;14.97;;
32824;SDS011;51060;42.640;24.356;2022-09-14T05:28:03;16.97;;;12.93;;
32824;SDS011;51060;42.640;24.356;2022-09-14T05:30:28;19.10;;;15.23;;
32824;SDS011;51060;42.640;24.356;2022-09-14T05:32:54;17.37;;;13.73;;
32824;SDS011;51060;42.640;24.356;2022-09-14T05:35:20;18.63;;;14.97;;
32824;SDS011;51060;42.640;24.356;2022-09-14T05:37:45;16.93;;;14.07;;
32824;SDS011;51060;42.640;24.356;2022-09-14T05:40:11;16.90;;;14.50;;
32824;SDS011;51060;42.640;24.356;2022-09-14T05:42:37;17.67;;;15.07;;
32824;SDS011;51060;42.640;24.356;2022-09-14T05:45:02;14.27;;;12.53;;
32824;SDS011;51060;42.640;24.356;2022-09-14T05:47:29;17.07;;;12.53;;
32824;SDS011;51060;42.640;24.356;2022-09-14T05:49:55;13.60;;;10.33;;
32824;SDS011;51060;42.640;24.356;2022-09-14T05:52:21;13.80;;;9.93;;
32824;SDS011;51060;42.640;24.356;2022-09-14T05:54:48;11.60;;;10.40;;
32824;SDS011;51060;42.640;24.356;2022-09-14T05:57:13;12.37;;;11.07;;
32824;SDS011;51060;42.640;24.356;2022-09-14T05:59:39;16.80;;;11.40;;
32824;SDS011;51060;42.640;24.356;2022-09-14T06:02:05;11.17;;;9.80;;
32824;SDS011;51060;42.640;24.356;2022-09-14T06:04:31;10.57;;;9.47;;
32824;SDS011;51060;42.640;24.356;2022-09-14T06:06:57;9.80;;;8.17;;
32824;SDS011;51060;42.640;24.356;2022-09-14T06:09:22;8.93;;;8.03;;
32824;SDS011;51060;42.640;24.356;2022-09-14T06:11:48;7.47;;;6.77;;
32824;SDS011;51060;42.640;24.356;2022-09-14T06:14:14;7.90;;;7.10;;
32824;SDS011;51060;42.640;24.356;2022-09-14T06:16:44;6.83;;;6.13;;
32824;SDS011;51060;42.640;24.356;2022-09-14T06:19:10;6.57;;;5.90;;
32824;SDS011;51060;42.640;24.356;2022-09-14T06:21:38;5.25;;;4.75;;
32824;SDS011;51060;42.640;24.356;2022-09-14T06:24:04;6.00;;;5.40;;
32824;SDS011;51060;42.640;24.356;2022-09-14T06:26:29;5.75;;;4.22;;
32824;SDS011;51060;42.640;24.356;2022-09-14T06:28:55;5.95;;;4.68;;
32824;SDS011;51060;42.640;24.356;2022-09-14T06:31:21;6.50;;;5.80;;
32824;SDS011;51060;42.640;24.356;2022-09-14T06:33:47;4.70;;;4.30;;
32824;SDS011;51060;42.640;24.356;2022-09-14T06:36:15;3.92;;;3.40;;
32824;SDS011;51060;42.640;24.356;2022-09-14T06:38:44;3.55;;;3.25;;
32824;SDS011;51060;42.640;24.356;2022-09-14T06:41:11;3.25;;;3.05;;
32824;SDS011;51060;42.640;24.356;2022-09-14T06:43:40;3.40;;;3.10;;
32824;SDS011;51060;42.640;24.356;2022-09-14T06:48:40;3.53;;;3.22;;
32824;SDS011;51060;42.640;24.356;2022-09-14T06:53:44;4.05;;;3.35;;
32824;SDS011;51060;42.640;24.356;2022-09-14T06:56:10;4.05;;;3.60;;
32824;SDS011;51060;42.640;24.356;2022-09-14T06:58:36;3.60;;;3.10;;
32824;SDS011;51060;42.640;24.356;2022-09-14T07:01:03;3.92;;;3.13;;
32824;SDS011;51060;42.640;24.356;2022-09-14T07:03:30;3.75;;;2.70;;
32824;SDS011;51060;42.640;24.356;2022-09-14T07:06:00;2.85;;;2.55;;
32824;SDS011;51060;42.640;24.356;2022-09-14T07:08:31;3.25;;;2.47;;
32824;SDS011;51060;42.640;24.356;2022-09-14T07:11:00;2.55;;;2.35;;
32824;SDS011;51060;42.640;24.356;2022-09-14T07:13:27;3.25;;;2.35;;
32824;SDS011;51060;42.640;24.356;2022-09-14T07:15:53;2.92;;;2.63;;
32824;SDS011;51060;42.640;24.356;2022-09-14T07:18:20;2.95;;;2.70;;
32824;SDS011;51060;42.640;24.356;2022-09-14T07:20:46;3.17;;;2.40;;
32824;SDS011;51060;42.640;24.356;2022-09-14T07:23:13;2.85;;;2.10;;
32824;SDS011;51060;42.640;24.356;2022-09-14T07:25:39;2.92;;;2.00;;
32824;SDS011;51060;42.640;24.356;2022-09-14T07:28:05;2.45;;;2.25;;
32824;SDS011;51060;42.640;24.356;2022-09-14T07:30:34;2.72;;;2.20;;
32824;SDS011;51060;42.640;24.356;2022-09-14T07:33:00;2.65;;;2.40;;
32824;SDS011;51060;42.640;24.356;2022-09-14T07:35:26;2.22;;;2.03;;
32824;SDS011;51060;42.640;24.356;2022-09-14T07:37:52;3.15;;;2.10;;
32824;SDS011;51060;42.640;24.356;2022-09-14T07:40:18;2.70;;;2.30;;
32824;SDS011;51060;42.640;24.356;2022-09-14T07:42:52;2.42;;;2.15;;
32824;SDS011;51060;42.640;24.356;2022-09-14T07:45:18;2.05;;;1.80;;
32824;SDS011;51060;42.640;24.356;2022-09-14T07:47:45;2.22;;;2.03;;
32824;SDS011;51060;42.640;24.356;2022-09-14T07:50:11;2.10;;;1.90;;
32824;SDS011;51060;42.640;24.356;2022-09-14T07:52:37;2.53;;;2.33;;
32824;SDS011;51060;42.640;24.356;2022-09-14T07:55:04;3.15;;;2.10;;
32824;SDS011;51060;42.640;24.356;2022-09-14T07:57:30;3.80;;;1.92;;
32824;SDS011;51060;42.640;24.356;2022-09-14T07:59:56;2.33;;;2.05;;
32824;SDS011;51060;42.640;24.356;2022-09-14T08:02:22;2.65;;;1.90;;
32824;SDS011;51060;42.640;24.356;2022-09-14T08:04:49;2.63;;;2.00;;
32824;SDS011;51060;42.640;24.356;2022-09-14T08:07:17;2.10;;;1.88;;
32824;SDS011;51060;42.640;24.356;2022-09-14T08:09:43;2.78;;;2.40;;
32824;SDS011;51060;42.640;24.356;2022-09-14T08:12:09;2.38;;;2.13;;
32824;SDS011;51060;42.640;24.356;2022-09-14T08:14:35;3.30;;;2.33;;
32824;SDS011;51060;42.640;24.356;2022-09-14T08:17:01;2.13;;;1.95;;
32824;SDS011;51060;42.640;24.356;2022-09-14T08:19:27;5.30;;;2.03;;
32824;SDS011;51060;42.640;24.356;2022-09-14T08:21:53;1.63;;;1.52;;
32824;SDS011;51060;42.640;24.356;2022-09-14T08:24:19;2.25;;;2.05;;
32824;SDS011;51060;42.640;24.356;2022-09-14T08:26:45;2.50;;;2.30;;
32824;SDS011;51060;42.640;24.356;2022-09-14T08:29:12;1.80;;;1.70;;
32824;SDS011;51060;42.640;24.356;2022-09-14T08:31:39;4.57;;;2.25;;
32824;SDS011;51060;42.640;24.356;2022-09-14T08:34:06;1.95;;;1.80;;
32824;SDS011;51060;42.640;24.356;2022-09-14T08:36:37;1.90;;;1.80;;
32824;SDS011;51060;42.640;24.356;2022-09-14T08:39:04;2.33;;;2.00;;
32824;SDS011;51060;42.640;24.356;2022-09-14T08:49:40;2.35;;;1.80;;
32824;SDS011;51060;42.640;24.356;2022-09-14T08:52:18;2.17;;;1.98;;
32824;SDS011;51060;42.640;24.356;2022-09-14T08:54:57;2.97;;;2.20;;
32824;SDS011;51060;42.640;24.356;2022-09-14T08:57:26;2.30;;;2.10;;
32824;SDS011;51060;42.640;24.356;2022-09-14T09:08:35;2.25;;;1.77;;
32824;SDS011;51060;42.640;24.356;2022-09-14T09:11:12;7.20;;;2.03;;
32824;SDS011;51060;42.640;24.356;2022-09-14T09:13:42;2.28;;;2.00;;
32824;SDS011;51060;42.640;24.356;2022-09-14T09:16:09;2.03;;;1.83;;
32824;SDS011;51060;42.640;24.356;2022-09-14T09:21:10;2.35;;;1.90;;
32824;SDS011;51060;42.640;24.356;2022-09-14T09:23:37;3.05;;;1.60;;
32824;SDS011;51060;42.640;24.356;2022-09-14T09:28:52;1.92;;;1.73;;
32824;SDS011;51060;42.640;24.356;2022-09-14T09:31:27;2.35;;;1.95;;
32824;SDS011;51060;42.640;24.356;2022-09-14T09:33:58;3.00;;;2.38;;
32824;SDS011;51060;42.640;24.356;2022-09-14T09:36:25;3.17;;;1.67;;
32824;SDS011;51060;42.640;24.356;2022-09-14T09:38:51;5.07;;;3.45;;
32824;SDS011;51060;42.640;24.356;2022-09-14T09:41:23;3.33;;;2.15;;
32824;SDS011;51060;42.640;24.356;2022-09-14T09:44:04;1.98;;;1.60;;
32824;SDS011;51060;42.640;24.356;2022-09-14T09:46:34;2.58;;;1.80;;
32824;SDS011;51060;42.640;24.356;2022-09-14T09:49:18;2.97;;;2.38;;
32824;SDS011;51060;42.640;24.356;2022-09-14T09:51:54;3.88;;;2.83;;
32824;SDS011;51060;42.640;24.356;2022-09-14T09:56:55;2.88;;;2.33;;
32824;SDS011;51060;42.640;24.356;2022-09-14T09:59:48;3.22;;;2.20;;
32824;SDS011;51060;42.640;24.356;2022-09-14T10:02:30;2.00;;;1.80;;
32824;SDS011;51060;42.640;24.356;2022-09-14T10:04:57;2.58;;;2.10;;
32824;SDS011;51060;42.640;24.356;2022-09-14T10:07:25;3.95;;;2.40;;
32824;SDS011;51060;42.640;24.356;2022-09-14T10:10:03;2.10;;;1.90;;
32824;SDS011;51060;42.640;24.356;2022-09-14T10:12:31;2.63;;;1.75;;
32824;SDS011;51060;42.640;24.356;2022-09-14T10:25:43;2.50;;;2.00;;
32824;SDS011;51060;42.640;24.356;2022-09-14T10:28:22;3.28;;;1.80;;
32824;SDS011;51060;42.640;24.356;2022-09-14T10:31:01;3.47;;;2.33;;
32824;SDS011;51060;42.640;24.356;2022-09-14T10:33:50;5.07;;;3.10;;
32824;SDS011;51060;42.640;24.356;2022-09-14T10:39:06;3.58;;;1.77;;
32824;SDS011;51060;42.640;24.356;2022-09-14T10:57:55;3.05;;;2.28;;
32824;SDS011;51060;42.640;24.356;2022-09-14T11:09:06;2.67;;;1.80;;
32824;SDS011;51060;42.640;24.356;2022-09-14T11:14:55;3.50;;;3.20;;
32824;SDS011;51060;42.640;24.356;2022-09-14T11:20:37;5.60;;;4.68;;
32824;SDS011;51060;42.640;24.356;2022-09-14T11:34:15;3.08;;;1.88;;
32824;SDS011;51060;42.640;24.356;2022-09-14T11:36:51;2.40;;;1.92;;
32824;SDS011;51060;42.640;24.356;2022-09-14T11:39:21;2.60;;;2.03;;
32824;SDS011;51060;42.640;24.356;2022-09-14T11:44:50;3.42;;;1.77;;
32824;SDS011;51060;42.640;24.356;2022-09-14T11:47:22;3.03;;;2.05;;
32824;SDS011;51060;42.640;24.356;2022-09-14T11:50:05;1.98;;;1.73;;
32824;SDS011;51060;42.640;24.356;2022-09-14T11:53:29;2.97;;;1.77;;
32824;SDS011;51060;42.640;24.356;2022-09-14T11:55:48;2.00;;;1.80;;
32824;SDS011;51060;42.640;24.356;2022-09-14T11:58:21;2.20;;;2.00;;
32824;SDS011;51060;42.640;24.356;2022-09-14T12:04:02;3.90;;;2.13;;
32824;SDS011;51060;42.640;24.356;2022-09-14T12:11:50;3.08;;;1.85;;
32824;SDS011;51060;42.640;24.356;2022-09-14T12:19:45;3.70;;;2.20;;
32824;SDS011;51060;42.640;24.356;2022-09-14T12:22:18;2.33;;;2.13;;
32824;SDS011;51060;42.640;24.356;2022-09-14T12:24:59;2.40;;;2.20;;
32824;SDS011;51060;42.640;24.356;2022-09-14T12:27:35;3.05;;;2.00;;
32824;SDS011;51060;42.640;24.356;2022-09-14T12:30:28;2.20;;;1.75;;
32824;SDS011;51060;42.640;24.356;2022-09-14T12:40:58;1.88;;;1.77;;
32824;SDS011;51060;42.640;24.356;2022-09-14T12:46:04;2.25;;;1.90;;
32824;SDS011;51060;42.640;24.356;2022-09-14T12:51:12;3.97;;;1.95;;
32824;SDS011;51060;42.640;24.356;2022-09-14T12:59:27;2.42;;;2.10;;
32824;SDS011;51060;42.640;24.356;2022-09-14T13:05:15;2.70;;;2.00;;
32824;SDS011;51060;42.640;24.356;2022-09-14T13:07:43;3.47;;;2.10;;
32824;SDS011;51060;42.640;24.356;2022-09-14T13:10:16;1.88;;;1.77;;
32824;SDS011;51060;42.640;24.356;2022-09-14T13:12:44;2.33;;;1.80;;
32824;SDS011;51060;42.640;24.356;2022-09-14T13:17:54;2.00;;;1.80;;
32824;SDS011;51060;42.640;24.356;2022-09-14T13:20:29;2.50;;;1.95;;
32824;SDS011;51060;42.640;24.356;2022-09-14T13:22:55;3.55;;;2.10;;
32824;SDS011;51060;42.640;24.356;2022-09-14T13:25:34;2.10;;;2.00;;
32824;SDS011;51060;42.640;24.356;2022-09-14T13:28:01;2.10;;;1.90;;
32824;SDS011;51060;42.640;24.356;2022-09-14T13:30:33;2.38;;;2.17;;
32824;SDS011;51060;42.640;24.356;2022-09-14T13:32:59;4.22;;;2.10;;
32824;SDS011;51060;42.640;24.356;2022-09-14T13:35:29;2.33;;;1.70;;
32824;SDS011;51060;42.640;24.356;2022-09-14T13:38:22;3.40;;;1.70;;
32824;SDS011;51060;42.640;24.356;2022-09-14T13:40:46;2.80;;;1.65;;
32824;SDS011;51060;42.640;24.356;2022-09-14T13:43:14;3.03;;;1.88;;
32824;SDS011;51060;42.640;24.356;2022-09-14T13:45:41;2.17;;;1.65;;
32824;SDS011;51060;42.640;24.356;2022-09-14T13:48:07;2.25;;;2.00;;
32824;SDS011;51060;42.640;24.356;2022-09-14T13:50:33;2.78;;;1.33;;
32824;SDS011;51060;42.640;24.356;2022-09-14T13:52:59;2.85;;;1.58;;
32824;SDS011;51060;42.640;24.356;2022-09-14T13:55:26;2.15;;;1.40;;
32824;SDS011;51060;42.640;24.356;2022-09-14T14:01:18;2.92;;;1.55;;
32824;SDS011;51060;42.640;24.356;2022-09-14T14:03:30;3.80;;;1.50;;
32824;SDS011;51060;42.640;24.356;2022-09-14T14:05:58;3.25;;;1.75;;
32824;SDS011;51060;42.640;24.356;2022-09-14T14:08:25;1.90;;;1.33;;
32824;SDS011;51060;42.640;24.356;2022-09-14T14:10:53;2.13;;;1.40;;
32824;SDS011;51060;42.640;24.356;2022-09-14T14:13:24;2.90;;;1.55;;
32824;SDS011;51060;42.640;24.356;2022-09-14T14:15:53;1.70;;;1.60;;
32824;SDS011;51060;42.640;24.356;2022-09-14T14:18:51;1.60;;;1.20;;
32824;SDS011;51060;42.640;24.356;2022-09-14T14:23:47;2.38;;;1.70;;
32824;SDS011;51060;42.640;24.356;2022-09-14T14:26:24;1.58;;;1.35;;
32824;SDS011;51060;42.640;24.356;2022-09-14T14:28:51;2.55;;;1.35;;
32824;SDS011;51060;42.640;24.356;2022-09-14T14:31:19;1.45;;;1.35;;
32824;SDS011;51060;42.640;24.356;2022-09-14T14:33:47;2.03;;;1.23;;
32824;SDS011;51060;42.640;24.356;2022-09-14T14:36:13;3.72;;;1.42;;
32824;SDS011;51060;42.640;24.356;2022-09-14T14:38:42;3.08;;;1.30;;
32824;SDS011;51060;42.640;24.356;2022-09-14T14:41:12;3.20;;;1.73;;
32824;SDS011;51060;42.640;24.356;2022-09-14T14:43:44;2.83;;;2.20;;
32824;SDS011;51060;42.640;24.356;2022-09-14T14:46:11;6.00;;;1.58;;
32824;SDS011;51060;42.640;24.356;2022-09-14T14:48:37;1.63;;;1.20;;
32824;SDS011;51060;42.640;24.356;2022-09-14T14:51:04;4.47;;;2.60;;
32824;SDS011;51060;42.640;24.356;2022-09-14T14:53:30;1.73;;;1.27;;
32824;SDS011;51060;42.640;24.356;2022-09-14T14:55:55;3.92;;;2.03;;
32824;SDS011;51060;42.640;24.356;2022-09-14T14:58:22;3.22;;;2.25;;
32824;SDS011;51060;42.640;24.356;2022-09-14T15:00:48;4.35;;;2.30;;
32824;SDS011;51060;42.640;24.356;2022-09-14T15:03:14;3.15;;;2.55;;
32824;SDS011;51060;42.640;24.356;2022-09-14T15:05:41;3.28;;;2.20;;
32824;SDS011;51060;42.640;24.356;2022-09-14T15:08:08;2.83;;;1.90;;
32824;SDS011;51060;42.640;24.356;2022-09-14T15:10:35;3.65;;;2.00;;
32824;SDS011;51060;42.640;24.356;2022-09-14T15:13:01;2.42;;;1.67;;
32824;SDS011;51060;42.640;24.356;2022-09-14T15:15:27;3.75;;;1.65;;
32824;SDS011;51060;42.640;24.356;2022-09-14T15:17:53;3.63;;;1.52;;
32824;SDS011;51060;42.640;24.356;2022-09-14T15:20:19;2.65;;;1.50;;
32824;SDS011;51060;42.640;24.356;2022-09-14T15:22:46;5.45;;;1.50;;
32824;SDS011;51060;42.640;24.356;2022-09-14T15:25:12;4.95;;;1.50;;
32824;SDS011;51060;42.640;24.356;2022-09-14T15:27:38;3.42;;;1.63;;
32824;SDS011;51060;42.640;24.356;2022-09-14T15:30:05;2.97;;;1.40;;
32824;SDS011;51060;42.640;24.356;2022-09-14T15:32:32;5.18;;;1.70;;
32824;SDS011;51060;42.640;24.356;2022-09-14T15:34:58;3.88;;;2.10;;
32824;SDS011;51060;42.640;24.356;2022-09-14T15:37:23;4.20;;;1.63;;
32824;SDS011;51060;42.640;24.356;2022-09-14T15:39:49;4.45;;;1.60;;
32824;SDS011;51060;42.640;24.356;2022-09-14T15:42:16;2.53;;;2.30;;
32824;SDS011;51060;42.640;24.356;2022-09-14T15:44:42;4.10;;;1.70;;
32824;SDS011;51060;42.640;24.356;2022-09-14T15:47:08;4.25;;;1.67;;
32824;SDS011;51060;42.640;24.356;2022-09-14T15:49:35;3.15;;;1.60;;
32824;SDS011;51060;42.640;24.356;2022-09-14T15:52:01;4.82;;;1.67;;
32824;SDS011;51060;42.640;24.356;2022-09-14T15:54:29;3.50;;;1.80;;
32824;SDS011;51060;42.640;24.356;2022-09-14T15:56:57;3.38;;;1.60;;
32824;SDS011;51060;42.640;24.356;2022-09-14T15:59:26;5.35;;;2.00;;
32824;SDS011;51060;42.640;24.356;2022-09-14T16:01:52;2.47;;;1.55;;
32824;SDS011;51060;42.640;24.356;2022-09-14T16:04:19;2.25;;;1.60;;
32824;SDS011;51060;42.640;24.356;2022-09-14T16:06:45;3.05;;;1.70;;
32824;SDS011;51060;42.640;24.356;2022-09-14T16:09:11;4.70;;;1.50;;
32824;SDS011;51060;42.640;24.356;2022-09-14T16:11:38;3.72;;;1.70;;
32824;SDS011;51060;42.640;24.356;2022-09-14T16:14:05;6.18;;;2.53;;
32824;SDS011;51060;42.640;24.356;2022-09-14T16:16:32;3.22;;;2.42;;
32824;SDS011;51060;42.640;24.356;2022-09-14T16:19:05;4.72;;;2.50;;
32824;SDS011;51060;42.640;24.356;2022-09-14T16:21:37;10.70;;;7.70;;
32824;SDS011;51060;42.640;24.356;2022-09-14T16:24:05;5.13;;;2.80;;
32824;SDS011;51060;42.640;24.356;2022-09-14T16:26:33;8.88;;;4.25;;
32824;SDS011;51060;42.640;24.356;2022-09-14T16:29:00;5.07;;;2.72;;
32824;SDS011;51060;42.640;24.356;2022-09-14T16:31:28;6.57;;;2.13;;
32824;SDS011;51060;42.640;24.356;2022-09-14T16:33:58;5.38;;;2.67;;
32824;SDS011;51060;42.640;24.356;2022-09-14T16:36:30;11.23;;;5.15;;
32824;SDS011;51060;42.640;24.356;2022-09-14T16:39:02;35.42;;;15.10;;
32824;SDS011;51060;42.640;24.356;2022-09-14T16:41:29;6.47;;;3.90;;
32824;SDS011;51060;42.640;24.356;2022-09-14T16:43:56;6.07;;;3.63;;
32824;SDS011;51060;42.640;24.356;2022-09-14T16:46:25;4.30;;;2.90;;
32824;SDS011;51060;42.640;24.356;2022-09-14T16:48:52;6.05;;;2.63;;
32824;SDS011;51060;42.640;24.356;2022-09-14T16:51:19;5.05;;;2.40;;
32824;SDS011;51060;42.640;24.356;2022-09-14T16:53:47;5.38;;;2.20;;
32824;SDS011;51060;42.640;24.356;2022-09-14T16:56:17;5.13;;;2.47;;
32824;SDS011;51060;42.640;24.356;2022-09-14T16:58:44;4.32;;;2.05;;
32824;SDS011;51060;42.640;24.356;2022-09-14T17:01:13;2.97;;;1.85;;
32824;SDS011;51060;42.640;24.356;2022-09-14T17:03:40;3.15;;;2.10;;
32824;SDS011;51060;42.640;24.356;2022-09-14T17:06:09;4.85;;;2.10;;
32824;SDS011;51060;42.640;24.356;2022-09-14T17:08:40;4.57;;;2.63;;
32824;SDS011;51060;42.640;24.356;2022-09-14T17:11:06;4.13;;;2.95;;
32824;SDS011;51060;42.640;24.356;2022-09-14T17:13:32;7.30;;;4.97;;
32824;SDS011;51060;42.640;24.356;2022-09-14T17:15:59;8.93;;;5.60;;
32824;SDS011;51060;42.640;24.356;2022-09-14T17:18:25;12.55;;;10.02;;
32824;SDS011;51060;42.640;24.356;2022-09-14T17:20:56;19.02;;;11.15;;
32824;SDS011;51060;42.640;24.356;2022-09-14T17:23:23;13.50;;;8.55;;
32824;SDS011;51060;42.640;24.356;2022-09-14T17:25:48;9.60;;;6.80;;
32824;SDS011;51060;42.640;24.356;2022-09-14T17:28:14;7.07;;;4.85;;
32824;SDS011;51060;42.640;24.356;2022-09-14T17:30:41;6.25;;;4.25;;
32824;SDS011;51060;42.640;24.356;2022-09-14T17:33:07;7.03;;;4.00;;
32824;SDS011;51060;42.640;24.356;2022-09-14T17:35:33;4.80;;;3.05;;
32824;SDS011;51060;42.640;24.356;2022-09-14T17:37:59;8.05;;;3.45;;